Time;durP1;ratioP1;P1;durP2;ratioP2;P2;SDS_P1;SDS_P2;PMS_P1;PMS_P2;Temp;Humidity;BMP_temperature;BMP_pressure;BME280_temperature;BME280_humidity;BME280_pressure;Samples;Min_cycle;Max_cycle;Signal;HPM_P1;HPM_P2
2022/08/11 00:02:07;;;;;;;7.78;4.30;;;;;;;13.12;76.70;98775.72;5044582;28;20087;-68
2022/08/11 00:04:36;;;;;;;9.32;4.90;;;;;;;13.16;76.97;98774.75;5044789;28;20316;-68
2022/08/11 00:07:03;;;;;;;17.58;5.10;;;;;;;13.02;77.08;98765.41;5044735;28;20069;-68
2022/08/11 00:09:35;;;;;;;6.07;4.45;;;;;;;13.09;77.20;98766.09;5044682;28;20048;-68
2022/08/11 00:12:01;;;;;;;11.00;4.95;;;;;;;13.07;77.05;98774.06;5044614;28;20128;-68
2022/08/11 00:14:29;;;;;;;12.07;4.97;;;;;;;12.93;77.55;98760.34;5044598;28;20325;-68
2022/08/11 00:17:02;;;;;;;6.65;4.80;;;;;;;12.94;77.56;98767.34;5044571;28;20252;-68
2022/08/11 00:19:31;;;;;;;10.57;5.32;;;;;;;12.84;77.77;98763.22;5044457;28;20024;-68
2022/08/11 00:21:58;;;;;;;6.72;4.40;;;;;;;12.77;78.54;98769.56;5044504;28;20029;-68
2022/08/11 00:24:24;;;;;;;9.02;4.32;;;;;;;12.88;78.25;98767.50;5044454;28;20075;-68
2022/08/11 00:26:51;;;;;;;8.57;4.82;;;;;;;12.79;77.98;98767.75;5044591;28;20029;-68
2022/08/11 00:29:18;;;;;;;6.38;4.50;;;;;;;12.61;77.96;98770.00;5044224;28;20309;-68
2022/08/11 00:31:51;;;;;;;9.18;4.78;;;;;;;12.50;79.57;98764.97;5044286;28;20088;-68
2022/08/11 00:34:17;;;;;;;;;;;;;;;12.49;79.44;98768.53;5044977;28;20244;-68
2022/08/11 00:37:05;;;;;;;7.78;5.20;;;;;;;12.50;79.59;98770.25;5044217;28;19905;-68
2022/08/11 00:39:35;;;;;;;9.23;4.97;;;;;;;12.57;79.60;98769.19;5044079;28;20025;-68
2022/08/11 00:42:09;;;;;;;8.00;5.13;;;;;;;12.59;79.41;98770.03;5044153;28;20035;-68
2022/08/11 00:44:50;;;;;;;11.48;4.88;;;;;;;12.56;79.62;98767.47;5044151;28;20040;-68
2022/08/11 00:47:39;;;;;;;8.88;5.50;;;;;;;12.57;79.75;98766.56;5044118;28;20029;-68
2022/08/11 00:50:39;;;;;;;11.88;5.45;;;;;;;12.49;80.18;98767.66;5044037;28;20021;-68
2022/08/11 00:53:29;;;;;;;9.00;5.68;;;;;;;12.57;80.23;98778.91;5044033;28;20036;-68
2022/08/11 00:56:18;;;;;;;9.45;5.55;;;;;;;12.50;80.18;98775.53;5044242;28;20033;-68
2022/08/11 00:58:55;;;;;;;9.15;5.18;;;;;;;12.41;80.73;98765.19;5043897;28;20017;-68
2022/08/11 01:01:36;;;;;;;8.75;5.50;;;;;;;12.48;80.72;98765.94;5043941;28;20101;-68
2022/08/11 01:04:48;;;;;;;8.75;5.22;;;;;;;12.24;80.29;98761.22;5043852;28;20031;-68
2022/08/11 01:07:22;;;;;;;11.63;6.18;;;;;;;12.25;80.90;98769.13;5043874;28;20033;-68
2022/08/11 01:09:57;;;;;;;16.15;6.28;;;;;;;12.12;81.66;98767.66;5043877;28;20085;-68
2022/08/11 01:12:44;;;;;;;9.15;5.65;;;;;;;12.12;82.21;98762.41;5043815;28;20036;-68
2022/08/11 01:15:46;;;;;;;16.40;5.82;;;;;;;12.14;81.83;98765.88;5047211;28;20032;-68
2022/08/11 01:18:34;;;;;;;12.07;5.95;;;;;;;12.00;82.90;98770.63;5048093;28;20025;-68
2022/08/11 01:21:06;;;;;;;11.48;5.80;;;;;;;12.14;82.62;98773.78;5047843;28;20083;-68
2022/08/11 01:24:15;;;;;;;8.50;5.93;;;;;;;11.99;82.00;98766.22;5047744;28;20092;-68
2022/08/11 01:26:59;;;;;;;8.57;5.55;;;;;;;11.97;82.80;98781.25;5047812;28;20382;-68
2022/08/11 01:30:13;;;;;;;9.63;5.97;;;;;;;12.05;82.75;98775.75;5047627;28;20041;-68
2022/08/11 01:33:18;;;;;;;12.50;6.35;;;;;;;11.90;82.53;98776.97;5042754;28;20037;-68
2022/08/11 01:35:50;;;;;;;9.23;5.97;;;;;;;11.93;82.48;98778.69;5047830;28;20066;-68
2022/08/11 01:38:37;;;;;;;12.63;6.43;;;;;;;12.01;82.68;98776.75;5047519;28;20021;-68
2022/08/11 01:45:06;;;;;;;10.55;5.93;;;;;;;11.86;82.80;98767.41;5047426;28;20028;-68
2022/08/11 01:47:51;;;;;;;11.25;6.00;;;;;;;11.94;82.80;98773.41;5039604;28;20089;-68
2022/08/11 01:50:20;;;;;;;11.73;6.40;;;;;;;11.86;83.18;98774.44;5047353;28;20021;-68
2022/08/11 01:52:54;;;;;;;10.18;5.97;;;;;;;11.92;82.93;98774.31;5047324;28;20025;-68
2022/08/11 01:55:28;;;;;;;8.93;6.72;;;;;;;11.93;82.93;98776.06;5047253;28;20044;-68
2022/08/11 01:58:25;;;;;;;10.38;6.43;;;;;;;11.81;83.43;98771.94;5047084;28;20088;-68
2022/08/11 02:01:26;;;;;;;8.55;6.00;;;;;;;11.77;83.71;98778.16;5047135;28;20321;-68
2022/08/11 02:04:16;;;;;;;9.93;6.82;;;;;;;11.69;83.56;98772.19;5047070;28;20021;-68
2022/08/11 02:06:57;;;;;;;9.68;6.90;;;;;;;11.77;83.72;98779.94;5047029;28;20033;-68
2022/08/11 02:13:22;;;;;;;10.55;7.22;;;;;;;11.68;84.28;98775.72;4995557;28;20053;-68
2022/08/11 02:16:03;;;;;;;10.45;6.00;;;;;;;11.61;84.22;98774.06;4976683;28;20045;-68
2022/08/11 02:24:39;;;;;;;12.02;6.50;;;;;;;11.50;84.33;98780.47;5025224;28;20126;-68
2022/08/11 02:27:18;;;;;;;10.60;6.63;;;;;;;11.30;84.75;98783.53;5024651;28;20044;-68
2022/08/11 02:29:50;;;;;;;15.35;7.00;;;;;;;11.28;85.23;98774.78;5024978;28;20038;-68
2022/08/11 02:35:27;;;;;;;10.57;6.65;;;;;;;11.35;85.14;98781.66;5024902;28;20092;-68
2022/08/11 02:38:11;;;;;;;11.27;7.40;;;;;;;11.41;85.09;98785.94;5024937;28;20025;-68
2022/08/11 02:40:42;;;;;;;10.05;7.03;;;;;;;11.38;85.55;98783.34;5025154;28;20050;-68
2022/08/11 02:43:13;;;;;;;12.48;7.60;;;;;;;11.38;85.27;98784.22;5024816;28;20025;-68
2022/08/11 02:46:18;;;;;;;12.47;7.27;;;;;;;11.21;85.48;98788.97;5029297;28;20041;-68
2022/08/11 02:52:17;;;;;;;11.38;7.25;;;;;;;11.22;85.81;98780.16;5005093;28;20077;-68
2022/08/11 02:54:54;;;;;;;8.88;6.20;;;;;;;11.13;85.56;98785.59;5004988;28;20026;-68
2022/08/11 02:57:28;;;;;;;9.82;6.97;;;;;;;11.23;86.34;98786.31;5004881;28;20045;-68
2022/08/11 03:00:07;;;;;;;10.38;6.70;;;;;;;10.98;86.12;98785.88;5004827;28;20030;-68
2022/08/11 03:02:49;;;;;;;11.60;7.53;;;;;;;11.11;86.53;98795.31;5004801;28;20050;-68
2022/08/11 03:05:40;;;;;;;13.10;6.97;;;;;;;10.99;86.03;98782.38;5004828;28;20053;-68
2022/08/11 03:08:51;;;;;;;10.80;7.18;;;;;;;11.14;86.49;98791.75;5004792;28;20349;-68
2022/08/11 03:18:03;;;;;;;11.70;7.60;;;;;;;11.07;87.00;98791.00;5004590;28;20032;-68
2022/08/11 03:20:59;;;;;;;10.40;6.80;;;;;;;11.07;86.77;98784.88;5004496;28;20233;-68
2022/08/11 03:24:02;;;;;;;10.18;7.13;;;;;;;11.06;86.62;98784.00;5037902;28;20063;-68
2022/08/11 03:27:02;;;;;;;17.58;6.90;;;;;;;10.91;86.70;98785.16;5045527;28;20048;-68
2022/08/11 03:29:39;;;;;;;12.85;7.55;;;;;;;10.95;86.98;98788.59;5045301;28;20045;-68
2022/08/11 03:32:39;;;;;;;13.30;7.20;;;;;;;10.93;87.02;98787.75;5045493;28;20043;-68
2022/08/11 03:35:09;;;;;;;11.23;6.35;;;;;;;10.77;86.25;98778.41;5045372;28;20021;-68
2022/08/11 03:37:50;;;;;;;17.75;7.20;;;;;;;10.78;87.32;98782.75;5044746;28;20032;-68
2022/08/11 03:43:19;;;;;;;11.95;7.22;;;;;;;10.57;87.22;98785.78;5045193;28;20079;-68
2022/08/11 03:46:03;;;;;;;10.75;7.38;;;;;;;10.63;87.84;98788.28;5045439;28;20347;-68
2022/08/11 03:49:06;;;;;;;11.98;7.82;;;;;;;10.50;87.65;98786.75;5045150;28;20097;-68
2022/08/11 03:51:50;;;;;;;11.85;7.93;;;;;;;10.48;88.00;98791.19;5045072;28;20025;-68
2022/08/11 03:54:41;;;;;;;12.77;6.78;;;;;;;10.51;88.47;98799.88;5045031;28;20029;-68
2022/08/11 03:57:09;;;;;;;10.27;7.03;;;;;;;10.65;88.14;98799.66;5045015;28;20317;-68
2022/08/11 03:59:56;;;;;;;11.45;7.55;;;;;;;10.63;87.96;98798.81;5045069;28;20052;-68
2022/08/11 04:02:48;;;;;;;9.77;6.93;;;;;;;10.56;88.31;98798.06;5044865;28;20043;-68
2022/08/11 04:05:37;;;;;;;10.25;7.45;;;;;;;10.63;88.41;98809.34;5044807;28;20021;-68
2022/08/11 04:08:03;;;;;;;11.07;7.68;;;;;;;10.51;88.78;98804.31;5044722;28;20092;-67
2022/08/11 04:10:47;;;;;;;13.43;7.40;;;;;;;10.57;88.95;98804.22;5044689;28;20025;-67
2022/08/11 04:13:48;;;;;;;11.52;6.88;;;;;;;10.48;88.85;98809.63;5044656;28;20025;-67
2022/08/11 04:17:02;;;;;;;8.52;6.05;;;;;;;10.47;88.37;98802.59;5044649;28;20029;-67
2022/08/11 04:19:50;;;;;;;12.15;6.88;;;;;;;10.43;88.26;98800.91;5025505;28;20046;-67
2022/08/11 04:22:39;;;;;;;13.43;7.00;;;;;;;10.39;88.13;98799.22;5044777;28;20367;-67
2022/08/11 04:25:22;;;;;;;12.18;6.45;;;;;;;10.31;88.38;98798.47;5044406;28;20313;-67
2022/08/11 04:28:06;;;;;;;12.50;7.07;;;;;;;10.25;89.16;98801.22;5045249;28;20036;-67
2022/08/11 04:31:05;;;;;;;8.10;6.43;;;;;;;10.33;89.15;98805.47;5064272;28;20268;-67
2022/08/11 04:33:48;;;;;;;10.43;6.60;;;;;;;10.36;88.66;98800.16;5064226;28;20352;-67
2022/08/11 04:39:32;;;;;;;9.57;6.90;;;;;;;10.32;89.10;98803.72;5064041;28;20233;-67
2022/08/11 04:45:48;;;;;;;11.02;6.68;;;;;;;10.39;89.00;98799.22;5064063;28;20035;-67
2022/08/11 05:01:40;;;;;;;12.45;6.72;;;;;;;10.58;89.18;98817.34;5063896;28;20067;-67
2022/08/11 05:05:29;;;;;;;15.07;6.55;;;;;;;10.63;89.17;98815.47;5063943;28;20025;-67
2022/08/11 05:07:27;;;;;;;17.27;6.65;;;;;;;10.72;88.23;98819.72;5063720;28;20332;-67
2022/08/11 05:10:17;;;;;;;8.10;5.60;;;;;;;10.98;87.24;98828.03;5063853;28;20028;-67
2022/08/11 05:12:52;;;;;;;8.65;6.20;;;;;;;11.07;86.94;98830.50;5063836;28;20193;-67
2022/08/11 05:35:47;;;;;;;5.65;3.90;;;;;;;18.67;59.28;98859.03;5063569;28;20032;-67
2022/08/11 05:58:03;;;;;;;5.53;3.40;;;;;;;21.69;52.51;98868.28;5063353;28;20092;-68
2022/08/11 06:00:30;;;;;;;11.35;3.60;;;;;;;22.26;50.83;98865.63;5065354;28;20070;-68
2022/08/11 06:02:59;;;;;;;5.95;3.08;;;;;;;22.05;51.75;98858.91;5067114;28;20035;-68
2022/08/11 06:05:32;;;;;;;6.55;3.15;;;;;;;22.97;50.25;98871.78;5067288;28;20240;-68
2022/08/11 06:07:58;;;;;;;5.13;3.30;;;;;;;23.08;49.82;98869.25;5067009;28;20028;-68
2022/08/11 06:10:40;;;;;;;4.05;2.92;;;;;;;23.71;48.91;98873.00;5066873;28;20317;-68
2022/08/11 06:13:06;;;;;;;4.35;2.92;;;;;;;23.88;49.15;98866.47;5067203;28;20025;-68
2022/08/11 06:15:43;;;;;;;8.30;3.35;;;;;;;24.41;47.80;98869.84;5066841;28;20039;-68
2022/08/11 06:18:11;;;;;;;5.57;3.28;;;;;;;24.74;47.56;98870.13;5066790;28;20029;-68
2022/08/11 06:20:57;;;;;;;6.65;3.60;;;;;;;25.03;46.72;98859.91;5066815;28;20071;-68
2022/08/11 06:23:32;;;;;;;7.47;3.78;;;;;;;25.81;46.19;98885.41;5066561;28;20048;-68
2022/08/11 06:25:58;;;;;;;5.35;3.17;;;;;;;26.12;44.41;98879.38;5066675;28;20088;-68
2022/08/11 06:28:36;;;;;;;6.35;2.88;;;;;;;26.91;43.35;98888.25;5066412;28;20096;-68
2022/08/11 06:31:11;;;;;;;10.93;3.17;;;;;;;26.61;41.44;98869.13;5066542;28;20325;-68
2022/08/11 06:33:52;;;;;;;8.35;3.40;;;;;;;27.21;41.83;98883.06;5066605;28;20052;-68
2022/08/11 06:36:34;;;;;;;7.38;3.45;;;;;;;28.09;40.59;98882.69;5066517;28;20021;-68
2022/08/11 06:39:12;;;;;;;;;;;;;;;28.61;38.05;98885.31;5066730;28;20021;-68
2022/08/11 06:41:46;;;;;;;11.35;3.13;;;;;;;28.83;36.41;98879.72;5066438;28;19904;-68
2022/08/11 06:44:11;;;;;;;8.43;3.30;;;;;;;29.36;38.89;98883.00;5066398;28;20021;-68
2022/08/11 06:46:46;;;;;;;7.53;3.47;;;;;;;29.67;35.22;98884.59;5066548;28;20027;-68
2022/08/11 06:52:03;;;;;;;7.00;3.33;;;;;;;29.95;34.54;98870.16;5066187;28;20067;-68
2022/08/11 06:54:35;;;;;;;8.77;3.53;;;;;;;30.60;33.72;98882.91;5066114;28;20025;-68
2022/08/11 07:03:07;;;;;;;5.15;3.00;;;;;;;30.82;33.11;98866.25;5066024;28;20071;-68
2022/08/11 07:05:52;;;;;;;9.00;3.35;;;;;;;30.98;32.67;98875.47;5066195;28;20027;-68
2022/08/11 07:17:25;;;;;;;7.85;3.25;;;;;;;31.82;31.50;98868.78;5065679;28;20035;-68
2022/08/11 07:31:12;;;;;;;10.38;3.60;;;;;;;32.84;30.50;98874.25;5065421;28;20023;-68
2022/08/11 07:33:45;;;;;;;7.47;3.72;;;;;;;33.15;29.95;98873.75;5065669;28;20308;-68
2022/08/11 07:36:13;;;;;;;7.18;3.63;;;;;;;32.63;30.15;98862.94;5065291;28;20071;-68
2022/08/11 07:38:44;;;;;;;10.35;3.45;;;;;;;33.08;29.87;98882.59;5065351;28;20232;-68
2022/08/11 07:41:13;;;;;;;6.45;3.25;;;;;;;33.12;29.73;98871.34;5065291;28;20025;-68
2022/08/11 07:43:40;;;;;;;7.55;3.55;;;;;;;32.75;29.65;98869.78;5065235;28;20029;-68
2022/08/11 07:54:21;;;;;;;8.32;3.50;;;;;;;32.58;29.90;98854.38;5064959;28;20343;-68
2022/08/11 07:56:47;;;;;;;6.78;3.65;;;;;;;32.62;29.69;98861.19;5064904;28;20020;-68
2022/08/11 08:18:33;;;;;;;11.30;3.65;;;;;;;32.43;29.69;98864.16;5064489;28;20082;-68
2022/08/11 08:21:10;;;;;;;7.50;3.13;;;;;;;32.49;29.82;98863.50;5064453;28;20036;-68
2022/08/11 08:23:37;;;;;;;10.02;3.35;;;;;;;32.74;29.04;98859.91;5064370;28;20027;-68
2022/08/11 08:26:57;;;;;;;7.47;3.65;;;;;;;32.55;29.55;98862.03;5064373;28;20024;-69
2022/08/11 08:30:46;;;;;;;10.82;3.55;;;;;;;32.26;29.41;98856.88;5064052;28;20041;-69
2022/08/11 08:31:42;;;;;;;14.88;3.55;;;;;;;32.61;29.07;98856.78;5064244;28;20233;-69
2022/08/11 08:34:09;;;;;;;5.63;3.70;;;;;;;32.54;29.13;98855.72;5064368;28;20070;-69
2022/08/11 08:36:35;;;;;;;7.50;3.38;;;;;;;32.97;28.84;98858.31;5064169;28;20025;-69
2022/08/11 08:39:00;;;;;;;10.98;3.67;;;;;;;32.76;29.13;98857.88;5064115;28;20055;-69
2022/08/11 08:41:28;;;;;;;5.22;3.28;;;;;;;32.13;29.81;98861.88;5064185;28;20247;-69
2022/08/11 08:44:01;;;;;;;7.60;3.30;;;;;;;32.68;29.22;98863.28;5064124;28;20039;-69
2022/08/11 08:46:53;;;;;;;19.55;3.85;;;;;;;32.90;29.66;98868.19;5064116;28;20217;-69
2022/08/11 08:49:24;;;;;;;8.35;3.45;;;;;;;33.08;28.62;98868.97;5064069;28;20305;-69
2022/08/11 08:51:53;;;;;;;7.07;3.60;;;;;;;33.65;28.40;98869.09;5064048;28;20048;-69
2022/08/11 08:54:29;;;;;;;10.63;4.05;;;;;;;33.59;28.56;98876.09;5064074;28;20021;-69
2022/08/11 08:56:56;;;;;;;12.25;3.47;;;;;;;32.89;29.08;98858.31;5063990;28;20025;-69
2022/08/11 08:59:24;;;;;;;11.35;3.58;;;;;;;32.82;29.15;98859.97;5063887;28;20209;-69
2022/08/11 09:01:57;;;;;;;8.40;3.55;;;;;;;32.94;29.02;98874.19;5063897;28;20386;-69
2022/08/11 09:04:24;;;;;;;10.07;3.20;;;;;;;33.36;28.57;98879.59;5064152;28;20209;-69
2022/08/11 09:06:50;;;;;;;5.75;3.10;;;;;;;33.43;28.82;98875.25;5063944;28;20021;-69
2022/08/11 09:09:16;;;;;;;10.32;3.78;;;;;;;33.04;29.01;98870.31;5063879;28;20012;-69
2022/08/11 09:11:54;;;;;;;12.00;3.83;;;;;;;32.79;29.33;98854.81;5063775;28;20221;-69
2022/08/11 09:17:19;;;;;;;6.40;3.30;;;;;;;32.39;29.11;98857.31;5063777;28;20083;-68
2022/08/11 09:19:50;;;;;;;10.70;3.58;;;;;;;32.90;28.38;98856.44;5063630;28;20038;-69
2022/08/11 09:27:55;;;;;;;9.13;3.58;;;;;;;32.73;28.66;98847.28;5062795;28;20041;-69
2022/08/11 09:30:24;;;;;;;7.07;3.30;;;;;;;33.02;28.63;98850.50;5063598;28;20020;-69
2022/08/11 09:32:56;;;;;;;7.65;3.30;;;;;;;33.26;28.37;98857.06;5063878;28;20216;-69
2022/08/11 09:35:24;;;;;;;8.85;3.72;;;;;;;32.60;28.17;98833.25;5065758;28;20021;-69
2022/08/11 09:40:35;;;;;;;12.00;3.08;;;;;;;32.51;28.57;98833.38;5067517;28;20076;-69
2022/08/11 09:45:51;;;;;;;12.70;3.45;;;;;;;32.51;28.32;98817.88;5067453;28;20027;-69
2022/08/11 09:48:19;;;;;;;6.38;3.22;;;;;;;32.20;28.45;98827.53;5067436;28;20066;-69
2022/08/11 09:50:48;;;;;;;5.80;3.15;;;;;;;32.07;28.31;98846.16;5067380;28;20197;-69
2022/08/11 09:53:15;;;;;;;9.48;3.38;;;;;;;31.27;29.00;98826.38;5067540;28;20178;-69
2022/08/11 09:55:43;;;;;;;5.97;3.17;;;;;;;31.58;28.74;98827.72;5067521;28;20017;-69
2022/08/11 09:58:15;;;;;;;9.68;3.30;;;;;;;31.80;28.08;98848.13;5067443;28;20323;-69
2022/08/11 10:00:42;;;;;;;6.28;3.55;;;;;;;31.74;28.64;98849.63;5067200;28;20175;-69
2022/08/11 10:03:14;;;;;;;9.80;2.90;;;;;;;31.48;28.03;98826.06;5067196;28;20048;-69
2022/08/11 10:08:32;;;;;;;6.53;2.78;;;;;;;31.62;28.28;98823.66;5067041;28;20043;-69
2022/08/11 10:10:58;;;;;;;9.68;2.95;;;;;;;32.00;27.57;98815.16;5066869;28;20017;-69
2022/08/11 10:13:32;;;;;;;11.40;2.92;;;;;;;31.68;27.86;98833.03;5066890;28;20029;-69
2022/08/11 10:16:01;;;;;;;12.27;3.75;;;;;;;30.91;29.03;98811.00;5066889;28;20051;-69
2022/08/11 10:18:41;;;;;;;4.97;3.22;;;;;;;31.73;28.14;98837.00;5066769;28;20375;-69
2022/08/11 10:21:10;;;;;;;6.53;3.17;;;;;;;31.91;28.38;98793.44;5066986;28;20021;-69
2022/08/11 10:34:47;;;;;;;8.27;3.67;;;;;;;31.60;29.36;98801.16;5066538;28;20024;-69
2022/08/11 10:37:14;;;;;;;5.55;3.20;;;;;;;31.80;28.27;98789.09;5066494;28;20047;-69
2022/08/11 10:39:40;;;;;;;8.70;3.58;;;;;;;32.02;28.66;98804.97;5066437;28;20021;-69
2022/08/11 10:44:54;;;;;;;7.30;2.83;;;;;;;32.27;28.21;98790.44;5066365;28;20028;-69
2022/08/11 10:47:38;;;;;;;35.88;4.95;;;;;;;31.59;28.78;98791.31;5064991;28;20024;-69
2022/08/11 11:01:14;;;;;;;12.48;3.08;;;;;;;30.82;29.61;98784.72;5066035;28;20094;-69
2022/08/11 11:03:41;;;;;;;8.27;3.72;;;;;;;30.85;29.86;98795.28;5066253;28;20021;-69
2022/08/11 11:06:09;;;;;;;16.05;3.58;;;;;;;30.75;30.49;98781.75;5066013;28;20048;-69
2022/08/11 11:08:53;;;;;;;8.70;3.90;;;;;;;30.62;30.64;98769.47;5066124;28;20013;-69
2022/08/11 11:19:38;;;;;;;8.57;3.70;;;;;;;30.96;30.49;98776.03;5065928;28;20021;-69
2022/08/11 11:25:15;;;;;;;7.43;3.72;;;;;;;30.53;31.00;98751.38;5065620;28;20096;-69
2022/08/11 11:27:40;;;;;;;;;;;;;;;30.62;30.94;98777.63;5065971;28;20244;-69
2022/08/11 11:30:08;;;;;;;7.73;3.60;;;;;;;30.84;31.29;98769.09;5065364;28;19912;-69
2022/08/11 11:32:47;;;;;;;10.52;4.25;;;;;;;30.63;30.97;98763.88;5065694;28;20020;-69
2022/08/11 11:35:25;;;;;;;6.72;3.92;;;;;;;30.58;31.00;98738.19;5065418;28;20198;-69
2022/08/11 11:37:51;;;;;;;9.70;4.20;;;;;;;30.25;31.27;98736.94;5065292;28;20075;-69
2022/08/11 11:40:21;;;;;;;12.45;3.92;;;;;;;30.21;30.76;98734.69;5065271;28;20021;-69
2022/08/11 11:42:48;;;;;;;13.85;3.70;;;;;;;29.73;31.50;98755.66;5065266;28;20024;-69
2022/08/11 11:45:19;;;;;;;8.70;3.50;;;;;;;29.21;32.39;98733.41;5065178;28;20113;-69
2022/08/11 11:47:51;;;;;;;7.13;3.93;;;;;;;29.37;32.41;98732.84;5065159;28;20087;-69
2022/08/11 11:50:23;;;;;;;12.50;4.05;;;;;;;29.45;32.77;98740.25;5065154;28;20028;-69
2022/08/11 11:52:48;;;;;;;;;;;;;;;29.08;32.21;98735.53;5065553;28;20063;-69
2022/08/11 11:55:14;;;;;;;13.10;4.13;;;;;;;29.04;32.21;98726.00;5064966;28;19908;-69
2022/08/11 12:03:10;;;;;;;8.70;4.20;;;;;;;29.20;32.55;98714.59;5064916;28;20027;-69
2022/08/11 12:05:38;;;;;;;6.85;3.88;;;;;;;28.96;32.85;98696.03;5064803;28;20029;-69
2022/08/11 12:08:17;;;;;;;11.20;4.10;;;;;;;29.09;33.31;98710.16;5065000;28;20251;-69
2022/08/11 12:13:43;;;;;;;7.15;3.90;;;;;;;28.82;33.34;98704.56;5043861;28;20064;-69
2022/08/11 12:16:11;;;;;;;6.65;3.13;;;;;;;28.95;31.96;98705.13;5064759;28;20047;-69
2022/08/11 12:18:38;;;;;;;7.63;3.80;;;;;;;29.14;33.20;98699.72;5064478;28;20032;-69
2022/08/11 12:21:06;;;;;;;18.40;3.75;;;;;;;29.04;32.19;98688.03;5064779;28;20339;-69
2022/08/11 12:29:06;;;;;;;7.38;3.55;;;;;;;28.83;31.88;98689.16;5064158;28;20067;-69
2022/08/11 12:31:34;;;;;;;11.43;4.07;;;;;;;28.74;31.55;98696.28;5064342;28;20021;-69
2022/08/11 12:34:19;;;;;;;7.88;3.55;;;;;;;28.38;31.90;98687.94;5064309;28;20070;-69
2022/08/11 12:36:49;;;;;;;8.75;3.25;;;;;;;28.36;32.35;98685.34;5064526;28;20020;-69
2022/08/11 12:45:26;;;;;;;14.07;3.83;;;;;;;28.32;32.43;98673.06;5064142;28;20029;-69
2022/08/11 12:51:57;;;;;;;7.80;3.60;;;;;;;28.33;32.25;98672.09;5064178;28;20027;-69
2022/08/11 12:53:11;;;;;;;5.43;2.95;;;;;;;28.63;31.67;98672.03;5064029;28;20028;-69
2022/08/11 12:58:26;;;;;;;10.85;3.15;;;;;;;28.55;31.25;98668.31;5063893;28;20032;-69
2022/08/11 13:06:24;;;;;;;10.73;3.22;;;;;;;28.62;31.24;98634.25;5063857;28;20032;-69
2022/08/11 13:08:50;;;;;;;8.95;3.05;;;;;;;28.55;32.11;98652.94;5063539;28;20013;-69
2022/08/11 13:14:02;;;;;;;8.05;3.40;;;;;;;28.63;32.18;98647.66;5063802;28;20051;-69
2022/08/11 13:16:30;;;;;;;10.30;4.07;;;;;;;28.64;31.61;98648.50;5063778;28;20031;-69
2022/08/11 13:18:59;;;;;;;8.00;3.63;;;;;;;28.59;31.52;98637.22;5063670;28;20032;-69
2022/08/11 13:21:26;;;;;;;13.70;3.53;;;;;;;28.42;31.60;98630.66;5063746;28;20021;-69
2022/08/11 13:23:54;;;;;;;5.13;3.45;;;;;;;28.39;31.35;98630.94;5063768;28;20025;-69
2022/08/11 13:26:22;;;;;;;5.15;3.08;;;;;;;28.48;30.48;98630.13;5063636;28;20028;-69
2022/08/11 13:28:49;;;;;;;8.60;3.65;;;;;;;28.45;30.35;98624.97;5063473;28;20094;-69
2022/08/11 13:31:15;;;;;;;7.88;3.78;;;;;;;28.45;31.16;98630.41;5063703;28;20029;-69
2022/08/11 13:33:43;;;;;;;8.40;3.92;;;;;;;28.38;30.91;98623.78;5063677;28;20032;-69
2022/08/11 13:36:10;;;;;;;9.50;3.30;;;;;;;28.51;30.50;98621.69;5063677;28;20021;-69
2022/08/11 13:38:40;;;;;;;6.97;3.38;;;;;;;28.50;30.89;98617.28;5063753;28;20032;-69
2022/08/11 13:41:36;;;;;;;8.15;3.75;;;;;;;28.54;31.20;98617.84;5063510;28;20070;-69
2022/08/11 13:43:52;;;;;;;6.78;3.60;;;;;;;28.58;31.64;98620.16;5063431;28;20036;-69
2022/08/11 13:46:21;;;;;;;7.82;3.50;;;;;;;28.59;31.32;98632.69;5063557;28;20093;-69
2022/08/11 13:48:48;;;;;;;5.50;3.38;;;;;;;28.52;30.95;98609.88;5063497;28;20017;-69
2022/08/11 13:51:33;;;;;;;11.18;3.17;;;;;;;28.49;30.69;98623.69;5063486;28;20029;-69
2022/08/11 13:54:03;;;;;;;8.75;3.47;;;;;;;28.60;30.19;98620.84;5063415;28;20016;-69
2022/08/11 13:56:30;;;;;;;8.82;3.38;;;;;;;28.55;30.38;98612.31;5063425;28;20092;-69
2022/08/11 13:58:57;;;;;;;12.65;3.38;;;;;;;28.41;31.06;98596.41;5063357;28;20088;-69
2022/08/11 14:01:27;;;;;;;7.18;3.78;;;;;;;28.57;30.86;98607.56;5063627;28;20092;-69
2022/08/11 14:03:53;;;;;;;11.15;3.78;;;;;;;28.71;31.28;98601.75;5063282;28;20025;-69
2022/08/11 14:06:20;;;;;;;6.25;3.47;;;;;;;28.63;30.93;98596.19;5063359;28;20046;-69
2022/08/11 14:08:47;;;;;;;8.27;4.18;;;;;;;28.50;30.87;98601.03;5063255;28;20216;-69
2022/08/11 14:14:04;;;;;;;10.18;3.97;;;;;;;28.62;31.00;98585.47;5063223;28;20078;-69
2022/08/11 14:16:38;;;;;;;6.68;3.33;;;;;;;28.52;30.65;98571.97;5063232;28;20036;-69
2022/08/11 14:19:07;;;;;;;7.82;3.40;;;;;;;28.60;31.47;98574.78;5063138;28;20028;-69
2022/08/11 14:24:21;;;;;;;9.48;3.55;;;;;;;28.89;31.19;98581.03;5066769;28;20263;-69
2022/08/11 14:26:50;;;;;;;10.32;4.03;;;;;;;28.72;30.74;98584.50;5066681;28;20029;-69
2022/08/11 14:29:18;;;;;;;6.53;3.20;;;;;;;28.69;30.44;98578.50;5066670;28;20040;-69
2022/08/11 14:31:46;;;;;;;7.80;3.50;;;;;;;28.64;30.65;98568.13;5066628;28;20340;-69
2022/08/11 14:34:13;;;;;;;8.18;3.70;;;;;;;28.61;30.59;98559.41;5066810;28;20237;-69
2022/08/11 14:36:44;;;;;;;7.28;3.50;;;;;;;28.72;31.00;98562.81;5066588;28;20316;-69
2022/08/11 14:39:11;;;;;;;7.47;3.47;;;;;;;28.79;31.03;98563.09;5066613;28;20024;-69
2022/08/11 14:47:15;;;;;;;7.65;3.58;;;;;;;28.59;30.86;98529.75;5046406;28;20024;-69
2022/08/11 14:49:42;;;;;;;11.60;3.30;;;;;;;28.68;30.95;98545.16;5046352;28;20017;-69
2022/08/11 14:52:13;;;;;;;5.75;3.08;;;;;;;28.81;30.02;98543.00;5046581;28;20086;-69
2022/08/11 14:57:27;;;;;;;9.82;2.97;;;;;;;28.82;29.42;98536.56;5051545;28;20074;-69
2022/08/11 14:59:56;;;;;;;7.40;3.50;;;;;;;28.79;30.00;98531.44;5065994;28;20024;-69
2022/08/11 15:05:06;;;;;;;7.25;3.28;;;;;;;28.85;29.42;98540.81;5064395;28;20035;-69
2022/08/11 15:07:33;;;;;;;11.13;3.60;;;;;;;28.91;30.33;98532.97;5065016;28;20040;-69
2022/08/11 15:10:00;;;;;;;6.47;3.40;;;;;;;29.04;29.65;98525.41;5065256;28;20009;-69
2022/08/11 15:12:28;;;;;;;19.92;3.95;;;;;;;29.09;29.66;98533.97;5063390;28;20048;-69
2022/08/11 15:17:40;;;;;;;7.40;2.90;;;;;;;29.08;29.24;98529.53;5044462;28;20032;-69
2022/08/11 15:25:45;;;;;;;10.57;3.45;;;;;;;29.00;29.13;98529.41;5044760;28;20364;-69
2022/08/11 15:45:46;;;;;;;8.50;3.05;;;;;;;28.90;28.57;98512.31;5064358;28;20101;-69
2022/08/11 15:48:08;;;;;;;8.90;2.90;;;;;;;28.90;28.68;98517.72;5045419;28;20097;-69
2022/08/11 15:50:38;;;;;;;9.13;3.63;;;;;;;28.92;29.23;98523.84;5055622;28;20049;-69
2022/08/11 15:53:10;;;;;;;6.55;3.22;;;;;;;28.97;28.94;98508.00;5063338;28;20071;-69
2022/08/11 15:55:38;;;;;;;6.80;3.72;;;;;;;28.93;29.07;98506.59;5062446;28;20237;-69
2022/08/11 16:04:12;;;;;;;9.32;3.50;;;;;;;28.83;28.83;98505.78;5052430;28;20031;-69
2022/08/11 16:07:08;;;;;;;5.68;3.25;;;;;;;28.78;29.33;98502.63;5063730;28;20021;-69
2022/08/11 16:09:43;;;;;;;6.68;3.65;;;;;;;28.81;29.07;98510.47;5061523;28;20027;-69
2022/08/11 16:12:12;;;;;;;8.73;3.80;;;;;;;28.77;28.87;98503.66;5064044;28;20317;-69
2022/08/11 16:17:33;;;;;;;14.93;3.35;;;;;;;28.66;29.31;98503.78;5063671;28;20032;-69
2022/08/11 16:20:01;;;;;;;6.07;3.53;;;;;;;28.71;29.24;98503.34;5063598;28;20025;-69
2022/08/11 16:22:36;;;;;;;9.23;3.63;;;;;;;28.68;29.24;98493.69;5063141;28;20032;-69
2022/08/11 16:25:06;;;;;;;6.82;3.72;;;;;;;28.66;29.39;98492.13;5062160;28;20369;-69
2022/08/11 16:27:37;;;;;;;18.88;3.92;;;;;;;28.65;28.71;98501.22;5061752;28;20232;-69
2022/08/11 16:30:04;;;;;;;7.90;3.47;;;;;;;28.61;29.15;98495.28;5056173;28;20045;-69
2022/08/11 16:32:32;;;;;;;9.60;3.17;;;;;;;28.58;29.00;98490.13;5043543;28;20025;-69
2022/08/11 16:40:34;;;;;;;10.95;3.22;;;;;;;28.61;29.23;98494.41;5062455;28;20044;-69
2022/08/11 16:48:34;;;;;;;7.28;3.30;;;;;;;28.51;28.67;98483.56;5061993;28;20032;-69
2022/08/11 16:51:00;;;;;;;7.32;3.33;;;;;;;28.50;28.79;98481.88;5062611;28;20032;-69
2022/08/11 16:53:28;;;;;;;6.25;2.97;;;;;;;28.55;28.96;98487.72;5062344;28;20224;-69
2022/08/11 16:55:55;;;;;;;7.57;3.00;;;;;;;28.51;29.24;98483.56;5049803;28;20021;-69
2022/08/11 17:01:08;;;;;;;7.45;3.05;;;;;;;28.66;29.12;98482.13;5054451;28;20348;-69
2022/08/11 17:14:45;;;;;;;5.78;3.00;;;;;;;28.44;29.37;98474.28;5045602;28;20604;-69
2022/08/11 17:17:22;;;;;;;6.10;2.97;;;;;;;28.44;29.04;98471.56;5043362;28;20052;-69